Time;durP1;ratioP1;P1;durP2;ratioP2;P2;SDS_P1;SDS_P2;PMS_P1;PMS_P2;Temp;Humidity;BMP_temperature;BMP_pressure;BME280_temperature;BME280_humidity;BME280_pressure;Samples;Min_cycle;Max_cycle;Signal;HPM_P1;HPM_P2
2023/09/12 00:00:30;;;;;;;35.50;31.93;;;20.50;99.90;;;;;;5061103;28;20509;-61
2023/09/12 00:02:58;;;;;;;34.30;31.00;;;20.50;99.90;;;;;;5066061;28;21067;-62
2023/09/12 00:05:28;;;;;;;37.07;33.30;;;20.40;99.90;;;;;;5067471;28;20496;-62
2023/09/12 00:07:56;;;;;;;38.33;34.47;;;20.40;99.90;;;;;;5063948;28;21033;-62
2023/09/12 00:10:24;;;;;;;40.70;36.70;;;20.50;99.90;;;;;;5063766;28;21049;-62
2023/09/12 00:12:54;;;;;;;40.20;36.00;;;20.40;99.90;;;;;;5063135;28;20517;-62
2023/09/12 00:15:22;;;;;;;38.10;34.20;;;20.40;99.90;;;;;;5058041;28;20721;-62
2023/09/12 00:17:51;;;;;;;41.67;37.30;;;20.50;99.90;;;;;;5061680;28;20469;-62
2023/09/12 00:20:19;;;;;;;45.30;40.10;;;20.50;99.90;;;;;;5060712;28;20989;-62
2023/09/12 00:22:48;;;;;;;45.30;39.77;;;20.50;99.90;;;;;;5063732;28;20481;-61
2023/09/12 00:25:16;;;;;;;45.80;40.77;;;20.50;99.90;;;;;;5063401;28;20486;-62
2023/09/12 00:27:44;;;;;;;40.67;36.47;;;20.40;99.90;;;;;;5061531;28;20462;-61
2023/09/12 00:30:13;;;;;;;44.43;39.33;;;20.40;99.90;;;;;;5060425;28;20470;-62
2023/09/12 00:32:41;;;;;;;43.80;37.63;;;20.40;99.90;;;;;;5056823;28;20489;-62
2023/09/12 00:35:09;;;;;;;43.73;37.20;;;20.40;99.90;;;;;;5063986;28;20854;-60
2023/09/12 00:37:37;;;;;;;42.53;38.03;;;20.30;99.90;;;;;;5062957;28;20473;-62
2023/09/12 00:40:08;;;;;;;40.77;34.40;;;20.30;99.90;;;;;;5059641;28;20560;-62
2023/09/12 00:42:36;;;;;;;38.87;32.70;;;20.30;99.90;;;;;;5058364;28;20486;-60
2023/09/12 00:45:04;;;;;;;36.40;32.77;;;20.30;99.90;;;;;;5058726;28;20517;-61
2023/09/12 00:47:32;;;;;;;36.33;32.50;;;20.30;99.90;;;;;;5056564;28;20621;-62
2023/09/12 00:50:01;;;;;;;33.70;30.20;;;20.20;99.90;;;;;;5062175;28;20855;-62
2023/09/12 00:52:30;;;;;;;32.83;29.60;;;20.20;99.90;;;;;;5059659;28;21113;-62
2023/09/12 00:54:58;;;;;;;32.90;29.77;;;20.20;99.90;;;;;;5059327;28;21008;-61
2023/09/12 00:57:29;;;;;;;30.47;27.37;;;20.20;99.90;;;;;;5059540;28;20493;-62
2023/09/12 00:59:58;;;;;;;31.20;27.97;;;20.20;99.90;;;;;;5062976;28;20495;-62
2023/09/12 01:02:26;;;;;;;32.57;29.27;;;20.20;99.90;;;;;;5056353;28;20485;-61
2023/09/12 01:04:54;;;;;;;30.30;27.37;;;20.10;99.90;;;;;;5059406;28;20570;-62
2023/09/12 01:07:23;;;;;;;30.13;25.40;;;20.10;99.90;;;;;;5060472;28;20471;-62
2023/09/12 01:09:51;;;;;;;29.20;26.20;;;20.10;99.90;;;;;;5061080;28;20480;-62
2023/09/12 01:12:19;;;;;;;28.33;25.40;;;20.00;99.90;;;;;;5060900;28;20489;-60
2023/09/12 01:14:49;;;;;;;28.73;25.93;;;20.00;99.90;;;;;;5061881;28;20503;-62
2023/09/12 01:17:17;;;;;;;28.80;26.00;;;20.00;99.90;;;;;;5062674;28;20556;-61
2023/09/12 01:19:46;;;;;;;29.30;26.10;;;20.00;99.90;;;;;;5061205;28;20508;-62
2023/09/12 01:22:36;;;;;;;27.20;24.60;;;20.00;99.90;;;;;;5058603;28;24056;-62
2023/09/12 01:25:52;;;;;;;27.43;24.73;;;20.00;99.90;;;;;;5062750;28;20553;-62
2023/09/12 01:28:25;;;;;;;26.53;24.00;;;20.00;99.90;;;;;;5030543;28;20894;-62
2023/09/12 01:30:54;;;;;;;27.83;25.23;;;19.90;99.90;;;;;;5055682;28;20485;-61
2023/09/12 01:33:22;;;;;;;30.47;27.37;;;19.90;99.90;;;;;;5061503;28;20580;-62
2023/09/12 01:35:50;;;;;;;29.13;25.90;;;19.90;99.90;;;;;;5055172;28;21044;-61
2023/09/12 01:38:19;;;;;;;29.93;26.87;;;19.90;99.90;;;;;;5058998;28;20470;-61
2023/09/12 01:40:49;;;;;;;28.40;25.47;;;19.90;99.90;;;;;;5061648;28;20527;-62
2023/09/12 01:43:22;;;;;;;28.27;25.23;;;19.90;99.90;;;;;;5062130;28;20914;-62
2023/09/12 01:45:53;;;;;;;26.43;23.97;;;19.90;99.90;;;;;;5064528;28;21234;-62
2023/09/12 01:48:24;;;;;;;27.47;24.90;;;19.90;99.90;;;;;;5058074;28;20478;-61
2023/09/12 01:50:52;;;;;;;26.63;23.80;;;19.80;99.90;;;;;;5057273;28;20477;-62
2023/09/12 01:53:20;;;;;;;26.23;23.73;;;19.80;99.90;;;;;;5060975;28;20469;-62
2023/09/12 01:55:49;;;;;;;27.43;24.70;;;19.80;99.90;;;;;;5057376;28;20485;-62
2023/09/12 01:58:17;;;;;;;28.10;24.43;;;19.80;99.90;;;;;;5063393;28;20469;-62
2023/09/12 02:00:46;;;;;;;28.77;25.80;;;19.80;99.90;;;;;;5063475;28;20480;-62
2023/09/12 02:03:14;;;;;;;27.57;24.93;;;19.80;99.90;;;;;;5064316;28;20470;-61
2023/09/12 02:05:43;;;;;;;25.70;23.40;;;19.80;99.90;;;;;;5065931;28;20489;-62
2023/09/12 02:08:11;;;;;;;26.47;24.10;;;19.80;99.90;;;;;;5059948;28;20553;-61
2023/09/12 02:10:39;;;;;;;26.77;24.23;;;19.80;99.90;;;;;;5054306;28;20466;-62
2023/09/12 02:13:07;;;;;;;27.17;24.57;;;19.70;99.90;;;;;;5064150;28;21064;-61
2023/09/12 02:15:35;;;;;;;28.57;25.60;;;19.80;99.90;;;;;;5060402;28;20950;-62
2023/09/12 02:18:05;;;;;;;27.73;25.00;;;19.70;99.90;;;;;;5065058;28;20465;-62
2023/09/12 02:20:33;;;;;;;27.90;24.97;;;19.70;99.90;;;;;;5059386;28;20473;-61
2023/09/12 02:23:01;;;;;;;26.80;24.10;;;19.70;99.90;;;;;;5065460;28;20501;-62
2023/09/12 02:25:29;;;;;;;25.83;23.33;;;19.70;99.90;;;;;;5065400;28;20512;-62
2023/09/12 02:27:57;;;;;;;27.57;24.80;;;19.70;99.90;;;;;;5067887;28;20546;-62
2023/09/12 02:30:25;;;;;;;27.33;24.50;;;19.70;99.90;;;;;;5065668;28;20990;-62
2023/09/12 02:32:53;;;;;;;25.87;23.57;;;19.70;99.90;;;;;;5066903;28;20481;-62
2023/09/12 02:35:22;;;;;;;27.57;24.77;;;19.70;99.90;;;;;;5063716;28;20496;-62
2023/09/12 02:37:50;;;;;;;27.53;24.70;;;19.70;99.90;;;;;;5061023;28;20465;-61
2023/09/12 02:40:19;;;;;;;27.10;24.60;;;19.70;99.90;;;;;;5063260;28;20548;-61
2023/09/12 02:42:47;;;;;;;26.13;23.53;;;19.60;99.90;;;;;;5059662;28;20484;-62
2023/09/12 02:45:15;;;;;;;27.30;24.47;;;19.70;99.90;;;;;;5060466;28;20490;-62
2023/09/12 02:47:43;;;;;;;26.13;23.50;;;19.70;99.90;;;;;;5063606;28;21834;-62
2023/09/12 02:50:11;;;;;;;27.40;24.60;;;19.70;99.90;;;;;;5065962;28;20490;-62
2023/09/12 02:52:40;;;;;;;25.80;23.00;;;19.70;99.90;;;;;;5063052;28;20575;-61
2023/09/12 02:55:09;;;;;;;26.83;24.33;;;19.70;99.90;;;;;;5063800;28;20489;-61
2023/09/12 02:57:37;;;;;;;27.13;24.23;;;19.70;99.90;;;;;;5064589;28;20534;-62
2023/09/12 03:00:08;;;;;;;27.10;24.23;;;19.60;99.90;;;;;;5060243;28;20474;-61
2023/09/12 03:02:36;;;;;;;26.67;23.83;;;19.60;99.90;;;;;;5063823;28;20543;-62
2023/09/12 03:05:05;;;;;;;28.47;25.30;;;19.60;99.90;;;;;;5064566;28;20484;-62
2023/09/12 03:07:33;;;;;;;27.60;24.80;;;19.70;99.90;;;;;;5065380;28;20595;-61
2023/09/12 03:10:03;;;;;;;27.40;24.50;;;19.60;99.90;;;;;;5065502;28;20508;-62
2023/09/12 03:12:31;;;;;;;28.80;25.60;;;19.70;99.90;;;;;;5063770;28;20580;-62
2023/09/12 03:14:59;;;;;;;30.30;25.53;;;19.70;99.90;;;;;;5063194;28;20534;-62
2023/09/12 03:17:29;;;;;;;32.43;26.50;;;19.60;99.90;;;;;;5063136;28;20474;-61
2023/09/12 03:19:57;;;;;;;31.13;27.73;;;19.60;99.90;;;;;;5066286;28;20476;-62
2023/09/12 03:22:25;;;;;;;31.67;28.37;;;19.60;99.90;;;;;;5060653;28;20489;-61
2023/09/12 03:24:53;;;;;;;29.67;26.60;;;19.70;99.90;;;;;;5063349;28;20536;-61
2023/09/12 03:27:22;;;;;;;29.43;26.33;;;19.70;99.90;;;;;;5062233;28;20562;-62
2023/09/12 03:29:50;;;;;;;29.17;26.17;;;19.70;99.90;;;;;;5066557;28;21020;-61
2023/09/12 03:32:18;;;;;;;30.67;27.57;;;19.70;99.90;;;;;;5063924;28;20509;-62
2023/09/12 03:34:46;;;;;;;32.03;28.63;;;19.70;99.90;;;;;;5067514;28;20585;-62
2023/09/12 03:37:14;;;;;;;31.33;27.83;;;19.70;99.90;;;;;;5065336;28;20853;-61
2023/09/12 03:39:42;;;;;;;32.73;29.17;;;19.70;99.90;;;;;;5062113;28;20469;-61
2023/09/12 03:42:10;;;;;;;31.87;28.70;;;19.70;99.90;;;;;;5064532;28;20871;-62
2023/09/12 03:44:39;;;;;;;30.37;27.17;;;19.70;99.90;;;;;;5064727;28;20494;-62
2023/09/12 03:47:07;;;;;;;30.17;26.80;;;19.60;99.90;;;;;;5063864;28;20582;-62
2023/09/12 03:49:35;;;;;;;31.17;28.13;;;19.60;99.90;;;;;;5057028;28;20931;-62
2023/09/12 03:52:04;;;;;;;32.87;29.47;;;19.70;99.90;;;;;;5059051;28;20482;-60
2023/09/12 03:54:32;;;;;;;32.23;28.63;;;19.60;99.90;;;;;;5057959;28;20493;-62
2023/09/12 03:57:00;;;;;;;36.17;32.33;;;19.60;99.90;;;;;;5065612;28;20469;-62
2023/09/12 03:59:28;;;;;;;34.20;30.20;;;19.60;99.90;;;;;;5067717;28;20917;-62
2023/09/12 04:01:58;;;;;;;38.10;32.53;;;19.60;99.90;;;;;;5067482;28;20907;-61
2023/09/12 04:04:26;;;;;;;36.20;32.40;;;19.60;99.90;;;;;;5068474;28;20483;-62
2023/09/12 04:06:54;;;;;;;37.03;32.40;;;19.60;99.90;;;;;;5065627;28;20470;-61
2023/09/12 04:09:22;;;;;;;37.20;32.80;;;19.60;99.90;;;;;;5066390;28;20476;-62
2023/09/12 04:11:50;;;;;;;41.50;34.43;;;19.60;99.90;;;;;;5060657;28;21690;-61
2023/09/12 04:14:21;;;;;;;38.87;34.77;;;19.60;99.90;;;;;;5065426;28;20512;-61
2023/09/12 04:16:49;;;;;;;36.33;32.40;;;19.60;99.90;;;;;;5058087;28;21387;-62
2023/09/12 04:19:19;;;;;;;39.57;33.97;;;19.60;99.90;;;;;;5060121;28;20470;-62
2023/09/12 04:21:47;;;;;;;37.60;33.23;;;19.60;99.90;;;;;;5061679;28;20492;-62
2023/09/12 04:24:16;;;;;;;39.80;35.60;;;19.60;99.90;;;;;;5066509;28;20481;-62
2023/09/12 04:26:44;;;;;;;36.00;32.20;;;19.60;99.90;;;;;;5065137;28;20457;-62
2023/09/12 04:29:12;;;;;;;38.47;34.17;;;19.50;99.90;;;;;;5064136;28;20465;-62
2023/09/12 04:31:40;;;;;;;38.20;33.17;;;19.60;99.90;;;;;;5058289;28;20515;-62
2023/09/12 04:34:08;;;;;;;37.90;33.83;;;19.50;99.90;;;;;;5060194;28;20476;-62
2023/09/12 04:36:38;;;;;;;34.83;31.30;;;19.50;99.90;;;;;;5062342;28;20571;-61
2023/09/12 04:39:06;;;;;;;37.53;33.60;;;19.50;99.90;;;;;;5057039;28;20752;-61
2023/09/12 04:41:34;;;;;;;36.90;32.77;;;19.50;99.90;;;;;;5055595;28;20516;-61
2023/09/12 04:44:02;;;;;;;36.33;31.27;;;19.50;99.90;;;;;;5055081;28;20473;-62
2023/09/12 04:46:30;;;;;;;37.50;33.60;;;19.50;99.90;;;;;;5057872;28;20539;-62
2023/09/12 04:48:58;;;;;;;37.80;32.73;;;19.50;99.90;;;;;;5061049;28;21008;-62
2023/09/12 04:51:27;;;;;;;36.77;32.73;;;19.50;99.90;;;;;;5061012;28;20478;-61
2023/09/12 04:53:56;;;;;;;39.00;34.83;;;19.50;99.90;;;;;;5054313;28;20472;-61
2023/09/12 04:56:25;;;;;;;36.70;32.20;;;19.50;99.90;;;;;;5057158;28;20497;-61
2023/09/12 04:58:53;;;;;;;39.87;34.53;;;19.40;99.90;;;;;;5058781;28;20472;-61
2023/09/12 05:01:21;;;;;;;40.60;34.50;;;19.40;99.90;;;;;;5051111;28;20486;-61
2023/09/12 05:03:49;;;;;;;42.97;34.47;;;19.50;99.90;;;;;;5050821;28;20465;-61
2023/09/12 05:06:17;;;;;;;39.50;35.20;;;19.50;99.90;;;;;;5053758;28;21117;-61
2023/09/12 05:08:45;;;;;;;39.90;34.50;;;19.50;99.90;;;;;;5055832;28;20473;-61
2023/09/12 05:11:15;;;;;;;40.00;34.87;;;19.40;99.90;;;;;;5055509;28;20570;-61
2023/09/12 05:13:43;;;;;;;38.50;34.10;;;19.50;99.90;;;;;;5051588;28;22282;-61
2023/09/12 05:16:11;;;;;;;41.43;36.93;;;19.50;99.90;;;;;;5056086;28;20493;-64
2023/09/12 05:18:39;;;;;;;40.60;35.80;;;19.50;99.90;;;;;;5043994;28;20473;-61
2023/09/12 05:21:07;;;;;;;47.00;38.17;;;19.60;99.90;;;;;;5055132;28;20509;-61
2023/09/12 05:23:35;;;;;;;48.40;38.20;;;19.50;99.90;;;;;;5052467;28;20970;-61
2023/09/12 05:26:04;;;;;;;40.37;35.97;;;19.50;99.90;;;;;;5056279;28;20489;-61
2023/09/12 05:28:33;;;;;;;42.93;37.73;;;19.50;99.90;;;;;;5056959;28;22437;-61
2023/09/12 05:31:02;;;;;;;42.40;37.70;;;19.50;99.90;;;;;;5055227;28;20534;-60
2023/09/12 05:33:30;;;;;;;41.67;37.30;;;19.50;99.90;;;;;;5052957;28;20981;-61
2023/09/12 05:36:00;;;;;;;42.83;37.77;;;19.50;99.90;;;;;;5055794;28;21123;-61
2023/09/12 05:38:28;;;;;;;42.87;37.30;;;19.50;99.90;;;;;;5050315;28;21000;-61
2023/09/12 05:40:57;;;;;;;42.83;37.40;;;19.50;99.90;;;;;;5063262;28;20519;-61
2023/09/12 05:43:25;;;;;;;44.50;38.03;;;19.50;99.90;;;;;;5051466;28;20957;-62
2023/09/12 05:45:56;;;;;;;43.63;38.80;;;19.50;99.90;;;;;;5055594;28;20498;-61
2023/09/12 05:48:23;;;;;;;43.57;38.80;;;19.50;99.90;;;;;;5048868;28;20469;-62
2023/09/12 05:50:52;;;;;;;41.70;36.60;;;19.50;99.90;;;;;;5058120;28;20845;-61
2023/09/12 05:53:19;;;;;;;40.77;36.00;;;19.50;99.90;;;;;;5060404;28;20538;-61
2023/09/12 05:55:47;;;;;;;44.83;38.70;;;19.50;99.90;;;;;;5064251;28;21077;-62
2023/09/12 05:58:15;;;;;;;46.57;38.80;;;19.50;99.90;;;;;;5064453;28;20958;-62
2023/09/12 06:00:43;;;;;;;39.83;35.13;;;19.50;99.90;;;;;;5060486;28;20966;-62
2023/09/12 06:03:15;;;;;;;44.97;38.67;;;19.50;99.90;;;;;;5067648;28;20465;-62
2023/09/12 06:05:44;;;;;;;46.13;36.93;;;19.50;99.90;;;;;;5065362;28;20485;-62
2023/09/12 06:08:12;;;;;;;41.63;37.13;;;19.50;99.90;;;;;;5059523;28;20470;-62
2023/09/12 06:10:40;;;;;;;41.10;36.80;;;19.50;99.90;;;;;;5064016;28;20485;-62
2023/09/12 06:13:08;;;;;;;43.13;38.40;;;19.50;99.90;;;;;;5064203;28;20495;-62
2023/09/12 06:15:41;;;;;;;40.20;35.90;;;19.50;99.90;;;;;;5059706;28;20490;-62
2023/09/12 06:18:09;;;;;;;43.40;38.50;;;19.50;99.90;;;;;;5066146;28;20991;-62
2023/09/12 06:20:39;;;;;;;44.30;36.83;;;19.60;99.90;;;;;;5062910;28;20465;-62
2023/09/12 06:23:07;;;;;;;40.73;35.57;;;19.60;99.90;;;;;;5064341;28;20481;-63
2023/09/12 06:25:35;;;;;;;42.57;36.30;;;19.60;99.90;;;;;;5062521;28;20580;-62
2023/09/12 06:28:03;;;;;;;41.23;36.03;;;19.60;99.90;;;;;;5064760;28;20545;-62
2023/09/12 06:30:31;;;;;;;42.47;37.10;;;19.60;99.90;;;;;;5063303;28;20604;-62
2023/09/12 06:32:59;;;;;;;44.23;36.30;;;19.70;99.90;;;;;;5062604;28;20485;-62
2023/09/12 06:35:27;;;;;;;43.43;38.73;;;19.70;99.90;;;;;;5063617;28;20505;-62
2023/09/12 06:37:57;;;;;;;43.20;37.90;;;19.70;99.90;;;;;;5065026;28;20569;-63
2023/09/12 06:40:25;;;;;;;40.77;35.40;;;19.70;99.90;;;;;;5064021;28;20555;-62
2023/09/12 06:42:53;;;;;;;47.70;37.90;;;19.70;99.90;;;;;;5064478;28;20763;-63
2023/09/12 06:45:21;;;;;;;39.70;34.97;;;19.80;99.90;;;;;;5064301;28;20493;-62
2023/09/12 06:47:49;;;;;;;38.40;34.23;;;19.80;99.90;;;;;;5063561;28;20469;-61
2023/09/12 06:50:17;;;;;;;42.93;36.47;;;19.80;99.90;;;;;;5062716;28;20563;-62
2023/09/12 06:52:45;;;;;;;38.90;34.27;;;19.80;99.90;;;;;;5065153;28;20516;-62
2023/09/12 06:55:14;;;;;;;41.87;36.57;;;19.80;99.90;;;;;;5062099;28;21007;-63
2023/09/12 06:57:42;;;;;;;39.80;33.73;;;19.80;99.90;;;;;;5066020;28;20594;-62
2023/09/12 07:00:11;;;;;;;44.00;36.90;;;19.80;99.90;;;;;;5065076;28;20470;-62
2023/09/12 07:02:39;;;;;;;42.47;35.57;;;19.80;99.90;;;;;;5063052;28;20485;-61
2023/09/12 07:05:08;;;;;;;44.27;38.40;;;19.80;99.90;;;;;;5067245;28;20493;-62
2023/09/12 07:07:36;;;;;;;43.17;36.40;;;19.80;99.90;;;;;;5068497;28;20534;-62
2023/09/12 07:10:04;;;;;;;43.40;37.47;;;19.80;99.90;;;;;;5067788;28;20976;-62
2023/09/12 07:12:53;;;;;;;44.50;37.37;;;19.80;99.90;;;;;;5065052;28;20535;-62
2023/09/12 07:15:22;;;;;;;40.83;34.57;;;19.90;99.90;;;;;;5064910;28;20500;-63
2023/09/12 07:17:50;;;;;;;44.77;37.10;;;19.90;99.90;;;;;;5065320;28;20493;-62
2023/09/12 07:20:19;;;;;;;46.57;37.10;;;19.90;99.90;;;;;;5068190;28;20473;-62
2023/09/12 07:22:48;;;;;;;44.73;38.47;;;19.90;99.90;;;;;;5065252;28;20496;-62
2023/09/12 07:25:16;;;;;;;45.30;37.90;;;19.90;99.90;;;;;;5064538;28;20569;-62
2023/09/12 07:27:44;;;;;;;39.93;35.10;;;20.00;99.90;;;;;;5067708;28;20473;-62
2023/09/12 07:30:14;;;;;;;39.03;34.70;;;20.00;99.90;;;;;;5068513;28;20505;-61
2023/09/12 07:32:42;;;;;;;47.00;36.33;;;20.00;99.90;;;;;;5063088;28;20601;-62
2023/09/12 07:35:10;;;;;;;45.23;37.27;;;20.00;99.90;;;;;;5064663;28;20858;-63
2023/09/12 07:37:38;;;;;;;39.97;35.13;;;20.00;99.90;;;;;;5069587;28;20592;-62
2023/09/12 07:40:09;;;;;;;39.43;35.17;;;20.10;99.90;;;;;;5064293;28;20591;-62
2023/09/12 07:42:38;;;;;;;39.80;35.17;;;20.10;99.90;;;;;;5065908;28;20489;-62
2023/09/12 07:45:07;;;;;;;40.70;34.30;;;20.10;99.90;;;;;;5068198;28;20489;-62
2023/09/12 07:47:37;;;;;;;39.47;34.03;;;20.20;99.90;;;;;;5067572;28;20457;-62
2023/09/12 07:50:07;;;;;;;39.47;35.03;;;20.20;99.90;;;;;;5066548;28;20546;-62
2023/09/12 07:52:35;;;;;;;38.33;34.27;;;20.20;99.90;;;;;;5063279;28;20485;-62
2023/09/12 07:55:04;;;;;;;38.67;33.00;;;20.20;99.90;;;;;;5065226;28;20489;-62
2023/09/12 07:57:33;;;;;;;40.17;33.07;;;20.20;99.90;;;;;;5060439;28;20496;-62
2023/09/12 08:00:04;;;;;;;37.87;33.97;;;20.20;99.90;;;;;;5066572;28;20501;-62
2023/09/12 08:02:32;;;;;;;37.63;33.50;;;20.20;99.90;;;;;;5067878;28;20485;-62
2023/09/12 08:05:01;;;;;;;33.17;29.83;;;20.30;99.90;;;;;;5069650;28;20580;-62
2023/09/12 08:07:29;;;;;;;35.43;30.83;;;20.30;99.90;;;;;;5064041;28;20950;-62
2023/09/12 08:09:59;;;;;;;34.90;31.13;;;20.30;99.90;;;;;;5064317;28;20504;-63
2023/09/12 08:12:28;;;;;;;34.27;30.53;;;20.30;99.90;;;;;;5066992;28;20558;-62
2023/09/12 08:14:57;;;;;;;37.27;32.00;;;20.40;99.90;;;;;;5063461;28;20882;-62
2023/09/12 08:17:25;;;;;;;34.97;31.20;;;20.40;99.90;;;;;;5064153;28;20582;-62
2023/09/12 08:19:53;;;;;;;34.67;30.97;;;20.50;99.90;;;;;;5064970;28;20591;-62
2023/09/12 08:22:23;;;;;;;37.20;33.47;;;20.50;99.90;;;;;;5067717;28;20493;-62
2023/09/12 08:24:51;;;;;;;35.07;31.40;;;20.50;99.90;;;;;;5065418;28;20572;-62
2023/09/12 08:27:19;;;;;;;38.93;34.07;;;20.50;99.90;;;;;;5065029;28;20973;-62
2023/09/12 08:29:48;;;;;;;37.70;33.80;;;20.60;99.90;;;;;;5063478;28;20482;-62
2023/09/12 08:32:16;;;;;;;34.60;31.00;;;20.70;99.90;;;;;;5066511;28;20492;-62
2023/09/12 08:34:44;;;;;;;31.67;28.00;;;20.80;99.90;;;;;;5068197;28;20497;-61
2023/09/12 08:37:12;;;;;;;33.00;29.60;;;20.80;99.90;;;;;;5067809;28;20489;-62
2023/09/12 08:39:45;;;;;;;31.07;27.87;;;20.90;99.90;;;;;;5068460;28;20523;-62
2023/09/12 08:42:16;;;;;;;27.73;25.07;;;21.00;99.90;;;;;;5068176;28;20477;-62
2023/09/12 08:44:45;;;;;;;28.60;25.90;;;21.10;99.90;;;;;;5064761;28;20500;-62
2023/09/12 08:47:14;;;;;;;28.70;25.73;;;21.10;99.90;;;;;;5064038;28;20469;-62
2023/09/12 08:49:43;;;;;;;26.43;23.93;;;21.20;99.90;;;;;;5066820;28;20462;-62
2023/09/12 08:52:11;;;;;;;27.90;25.10;;;21.20;99.90;;;;;;5066924;28;20554;-62
2023/09/12 08:54:39;;;;;;;28.97;26.07;;;21.30;99.90;;;;;;5068217;28;21065;-63
2023/09/12 08:57:11;;;;;;;29.50;26.73;;;21.40;99.90;;;;;;5068654;28;20476;-63
2023/09/12 08:59:42;;;;;;;25.70;23.27;;;21.40;99.90;;;;;;5062956;28;20552;-63
2023/09/12 09:02:12;;;;;;;25.50;23.10;;;21.40;99.90;;;;;;5066069;28;21506;-61
2023/09/12 09:04:40;;;;;;;23.10;20.90;;;21.40;99.90;;;;;;5059286;28;20490;-63
2023/09/12 09:07:10;;;;;;;24.10;21.90;;;21.50;99.90;;;;;;5068840;28;20556;-63
2023/09/12 09:09:39;;;;;;;23.53;21.40;;;21.50;99.90;;;;;;5067596;28;20623;-62
2023/09/12 09:12:10;;;;;;;24.53;22.13;;;21.50;99.90;;;;;;5065367;28;20513;-61
2023/09/12 09:14:38;;;;;;;25.53;23.10;;;21.50;99.90;;;;;;5063139;28;20513;-61
2023/09/12 09:17:06;;;;;;;25.00;22.60;;;21.60;99.90;;;;;;5067658;28;20570;-61
2023/09/12 09:19:45;;;;;;;23.33;21.37;;;21.70;99.90;;;;;;5062008;28;20472;-61
2023/09/12 09:22:13;;;;;;;21.70;19.67;;;21.80;99.90;;;;;;5061109;28;20489;-61
2023/09/12 09:24:41;;;;;;;22.27;20.27;;;21.90;99.90;;;;;;5063536;28;20494;-61
2023/09/12 09:27:11;;;;;;;21.10;19.10;;;21.90;99.90;;;;;;5062891;28;20474;-62
2023/09/12 09:29:49;;;;;;;20.47;18.60;;;21.90;99.90;;;;;;5059763;28;20552;-61
2023/09/12 09:32:21;;;;;;;20.17;18.30;;;21.90;99.90;;;;;;5063812;28;20481;-60
2023/09/12 09:34:50;;;;;;;21.00;19.03;;;22.00;99.90;;;;;;5066038;28;20527;-62
2023/09/12 09:37:19;;;;;;;20.50;18.70;;;22.10;99.90;;;;;;5062068;28;20484;-61
2023/09/12 09:39:52;;;;;;;20.97;19.07;;;22.10;99.90;;;;;;5065189;28;20465;-62
2023/09/12 09:42:21;;;;;;;20.83;18.90;;;22.10;99.90;;;;;;5064398;28;20521;-62
2023/09/12 09:44:50;;;;;;;18.53;16.80;;;22.20;99.90;;;;;;5060430;28;20477;-61
2023/09/12 09:47:20;;;;;;;19.73;17.97;;;22.20;99.90;;;;;;5064196;28;23945;-62
2023/09/12 09:49:48;;;;;;;19.80;18.00;;;22.20;99.90;;;;;;5064196;28;21045;-61
2023/09/12 09:52:16;;;;;;;19.20;17.60;;;22.20;99.90;;;;;;5065424;28;20477;-61
2023/09/12 09:54:45;;;;;;;19.77;18.00;;;22.20;99.90;;;;;;5062597;28;20490;-61
2023/09/12 09:57:13;;;;;;;19.43;17.50;;;22.10;99.90;;;;;;5067119;28;20476;-60
2023/09/12 09:59:43;;;;;;;19.60;17.80;;;22.10;99.90;;;;;;5066219;28;20500;-62
2023/09/12 10:02:19;;;;;;;19.90;17.93;;;22.00;99.90;;;;;;5067297;28;20560;-61
2023/09/12 10:04:48;;;;;;;19.13;17.53;;;22.00;99.90;;;;;;5064617;28;20488;-61
2023/09/12 10:07:28;;;;;;;20.10;18.30;;;21.90;99.90;;;;;;5063608;28;20530;-61
2023/09/12 10:09:58;;;;;;;20.97;19.07;;;21.90;99.90;;;;;;5064943;28;20527;-61
2023/09/12 10:12:28;;;;;;;20.20;18.40;;;21.90;99.90;;;;;;5065386;28;20571;-61
2023/09/12 10:14:59;;;;;;;20.23;18.33;;;21.90;99.90;;;;;;5063517;28;20566;-59
2023/09/12 10:17:37;;;;;;;20.00;18.10;;;21.90;99.90;;;;;;5066021;28;20500;-61
2023/09/12 10:20:14;;;;;;;19.50;17.83;;;21.90;99.90;;;;;;5065492;28;20486;-60
2023/09/12 10:22:49;;;;;;;19.93;18.13;;;21.80;99.90;;;;;;5061791;28;20513;-61
2023/09/12 10:25:17;;;;;;;17.80;16.30;;;21.80;99.90;;;;;;5062596;28;20497;-62
2023/09/12 10:27:45;;;;;;;18.87;17.30;;;21.80;99.90;;;;;;5062030;28;21044;-61
2023/09/12 10:30:15;;;;;;;19.60;17.90;;;21.80;99.90;;;;;;5063622;28;20472;-61
2023/09/12 10:32:47;;;;;;;20.60;18.63;;;21.70;99.90;;;;;;5060008;28;20490;-62
2023/09/12 10:35:15;;;;;;;20.67;18.77;;;21.70;99.90;;;;;;5058649;28;20588;-61
2023/09/12 10:37:45;;;;;;;17.80;16.23;;;21.60;99.90;;;;;;5060539;28;20553;-62
2023/09/12 10:40:15;;;;;;;20.47;18.53;;;21.60;99.90;;;;;;5066325;28;20465;-61
2023/09/12 10:42:45;;;;;;;20.50;18.70;;;21.50;99.90;;;;;;5066115;28;20572;-61
2023/09/12 10:45:14;;;;;;;19.93;18.10;;;21.50;99.90;;;;;;5068520;28;20598;-61
2023/09/12 10:47:43;;;;;;;19.13;17.33;;;21.50;99.90;;;;;;5066495;28;20500;-61
2023/09/12 10:50:11;;;;;;;19.20;17.50;;;21.50;99.90;;;;;;5066506;28;20473;-61
2023/09/12 10:52:40;;;;;;;18.83;17.23;;;21.50;99.90;;;;;;5062151;28;20563;-60
2023/09/12 10:55:16;;;;;;;21.17;19.27;;;21.50;99.90;;;;;;5066378;28;20512;-61
2023/09/12 10:58:02;;;;;;;22.83;20.80;;;21.50;99.90;;;;;;5068550;28;20553;-61
2023/09/12 11:00:34;;;;;;;22.77;20.67;;;21.50;99.90;;;;;;5066108;28;20464;-60
2023/09/12 11:03:37;;;;;;;20.90;19.00;;;21.50;99.90;;;;;;5065414;28;20489;-61
2023/09/12 11:06:05;;;;;;;22.10;20.00;;;21.60;99.90;;;;;;5069805;28;20895;-61
2023/09/12 11:08:37;;;;;;;23.33;20.83;;;21.60;99.90;;;;;;5068725;28;20465;-62
2023/09/12 11:11:21;;;;;;;22.40;20.10;;;21.60;99.90;;;;;;5066321;28;20485;-61
2023/09/12 11:14:04;;;;;;;21.97;19.87;;;21.50;99.90;;;;;;5061674;28;20898;-61
2023/09/12 11:16:34;;;;;;;23.83;21.53;;;21.50;99.90;;;;;;5069018;28;21186;-62
2023/09/12 11:19:14;;;;;;;25.23;22.80;;;21.50;99.90;;;;;;5068825;28;21179;-62
2023/09/12 11:21:44;;;;;;;23.50;21.23;;;21.60;99.90;;;;;;5067209;28;20884;-62
2023/09/12 11:24:13;;;;;;;21.60;19.70;;;21.60;99.90;;;;;;5064660;28;20472;-60
2023/09/12 11:26:58;;;;;;;22.87;20.87;;;21.60;99.90;;;;;;5061193;28;20596;-60
2023/09/12 11:29:29;;;;;;;23.83;21.53;;;21.60;99.90;;;;;;5062044;28;20773;-62
2023/09/12 11:32:02;;;;;;;21.73;19.73;;;21.60;99.90;;;;;;5063075;28;20481;-62
2023/09/12 11:34:36;;;;;;;22.83;20.73;;;21.60;99.90;;;;;;5067878;28;20578;-62
2023/09/12 11:37:05;;;;;;;23.40;21.40;;;21.60;99.90;;;;;;5064793;28;21064;-62
2023/09/12 11:39:34;;;;;;;22.07;20.07;;;21.60;99.90;;;;;;5068448;28;20873;-62
2023/09/12 11:42:03;;;;;;;23.67;21.53;;;21.60;99.90;;;;;;5065624;28;20497;-61
2023/09/12 11:44:32;;;;;;;23.90;21.80;;;21.60;99.90;;;;;;5068064;28;21061;-62
2023/09/12 11:47:06;;;;;;;25.37;22.97;;;21.60;99.90;;;;;;5065596;28;20462;-61
2023/09/12 11:49:37;;;;;;;24.90;22.70;;;21.50;99.90;;;;;;5063249;28;20465;-62
2023/09/12 11:52:10;;;;;;;26.03;23.27;;;21.50;99.90;;;;;;5063598;28;20914;-61
2023/09/12 11:54:38;;;;;;;28.40;25.80;;;21.50;99.90;;;;;;5066742;28;20513;-61
2023/09/12 11:57:09;;;;;;;29.37;26.27;;;21.50;99.90;;;;;;5064631;28;20492;-61
2023/09/12 11:59:39;;;;;;;26.27;23.87;;;21.50;99.90;;;;;;5065159;28;20574;-62
2023/09/12 12:02:10;;;;;;;29.53;26.63;;;21.50;99.90;;;;;;5065556;28;20913;-63
2023/09/12 12:04:38;;;;;;;29.07;26.20;;;21.50;99.90;;;;;;5067241;28;20521;-61
2023/09/12 12:07:08;;;;;;;27.20;24.60;;;21.50;99.90;;;;;;5062821;28;20511;-60
2023/09/12 12:09:36;;;;;;;29.43;26.53;;;21.60;99.90;;;;;;5063777;28;20568;-62
2023/09/12 12:12:10;;;;;;;29.60;26.80;;;21.60;99.90;;;;;;5063723;28;20495;-62
2023/09/12 12:14:39;;;;;;;29.07;26.27;;;21.60;99.90;;;;;;5064933;28;20502;-61
2023/09/12 12:17:10;;;;;;;29.33;26.53;;;21.70;99.90;;;;;;5061630;28;20986;-62
2023/09/12 12:19:39;;;;;;;26.80;24.23;;;21.70;99.90;;;;;;5061192;28;20489;-65
2023/09/12 12:22:09;;;;;;;28.90;25.93;;;21.60;99.90;;;;;;5056637;28;20496;-62
2023/09/12 12:24:39;;;;;;;29.03;26.07;;;21.60;99.90;;;;;;5065601;28;20482;-62
2023/09/12 12:27:09;;;;;;;29.00;26.27;;;21.60;99.90;;;;;;5064730;28;20480;-62
2023/09/12 12:29:39;;;;;;;29.23;26.40;;;21.60;99.90;;;;;;5060425;28;20864;-64
2023/09/12 12:32:09;;;;;;;27.27;24.53;;;21.60;99.90;;;;;;5062719;28;20496;-64
2023/09/12 12:34:38;;;;;;;28.83;25.77;;;21.60;99.90;;;;;;5064198;28;20501;-64
2023/09/12 12:37:30;;;;;;;25.50;23.00;;;21.60;99.90;;;;;;5062638;28;20457;-65
2023/09/12 12:39:59;;;;;;;24.97;22.67;;;21.50;99.90;;;;;;5063683;28;20492;-66